Time;durP1;ratioP1;P1;durP2;ratioP2;P2;SDS_P1;SDS_P2;PMS_P1;PMS_P2;Temp;Humidity;BMP_temperature;BMP_pressure;BME280_temperature;BME280_humidity;BME280_pressure;Samples;Min_cycle;Max_cycle;Signal;HPM_P1;HPM_P2
2023/03/20 00:00:40;;;;;;;7.07;3.92;;;;;;;7.12;45.27;94164.41;4989732;28;20038;-77
2023/03/20 00:03:05;;;;;;;4.75;3.80;;;;;;;6.83;45.00;94115.00;5012470;28;20577;-77
2023/03/20 00:05:32;;;;;;;7.18;4.53;;;;;;;7.11;45.45;94146.94;5009952;28;20030;-78
2023/03/20 00:07:58;;;;;;;8.23;4.15;;;;;;;7.14;45.50;94151.69;5010591;28;20048;-76
2023/03/20 00:10:49;;;;;;;4.72;3.80;;;;;;;7.16;45.08;94149.53;5009136;28;20041;-76
2023/03/20 00:13:23;;;;;;;6.00;4.28;;;;;;;7.11;45.36;94141.66;4991362;28;20454;-76
2023/03/20 00:15:48;;;;;;;4.35;3.92;;;;;;;7.15;45.41;94150.59;5007593;28;20410;-77
2023/03/20 00:18:18;;;;;;;5.85;3.63;;;;;;;7.08;45.10;94143.03;5009915;28;20052;-78
2023/03/20 00:20:47;;;;;;;5.57;3.75;;;;;;;7.02;45.28;94119.56;5009493;28;20087;-77
2023/03/20 00:23:13;;;;;;;4.93;4.43;;;;;;;7.12;45.39;94143.22;4991725;28;20038;-77
2023/03/20 00:25:40;;;;;;;6.82;3.58;;;;;;;7.04;45.27;94125.34;5009322;28;20884;-76
2023/03/20 00:28:33;;;;;;;6.07;3.65;;;;;;;7.11;45.47;94145.09;5009712;28;20033;-77
2023/03/20 00:30:58;;;;;;;5.63;4.65;;;;;;;7.11;45.55;94146.94;4995071;28;20490;-76
2023/03/20 00:33:23;;;;;;;6.15;4.97;;;;;;;7.02;45.55;94130.91;5008991;28;20036;-76
2023/03/20 00:35:49;;;;;;;6.90;4.70;;;;;;;7.05;45.76;94142.78;5012243;28;20047;-76
2023/03/20 00:38:14;;;;;;;8.90;4.72;;;;;;;6.79;45.66;94106.06;5008868;28;20557;-74
2023/03/20 00:40:40;;;;;;;7.90;6.00;;;;;;;6.91;45.60;94116.22;5009505;28;20579;-76
2023/03/20 00:43:06;;;;;;;6.20;4.72;;;;;;;6.84;45.55;94121.88;5009659;28;20069;-76
2023/03/20 00:45:34;;;;;;;7.13;4.20;;;;;;;6.88;45.86;94131.88;4997334;28;20497;-76
2023/03/20 00:48:00;;;;;;;7.45;4.68;;;;;;;6.79;45.87;94108.72;4998874;28;20042;-77
2023/03/20 00:50:29;;;;;;;8.07;5.60;;;;;;;6.87;45.94;94141.66;5007718;28;20051;-77
2023/03/20 00:52:57;;;;;;;8.13;5.82;;;;;;;6.60;46.09;94099.16;5008639;28;20394;-77
2023/03/20 00:55:26;;;;;;;8.20;5.65;;;;;;;6.85;46.10;94134.00;4984789;28;20050;-76
2023/03/20 00:57:57;;;;;;;6.53;4.93;;;;;;;6.82;45.79;94125.88;5008587;28;20045;-76
2023/03/20 01:00:33;;;;;;;7.20;5.07;;;;;;;6.88;45.86;94131.88;5007677;28;20103;-76
2023/03/20 01:02:58;;;;;;;;;;;;;;;6.76;45.91;94130.41;5006931;28;20600;-77
2023/03/20 01:05:26;;;;;;;7.00;5.05;;;;;;;6.77;45.99;94126.72;5005080;28;20666;-75
2023/03/20 01:07:51;;;;;;;6.22;4.53;;;;;;;6.76;45.91;94121.69;5010762;28;20049;-76
2023/03/20 01:10:17;;;;;;;5.88;4.55;;;;;;;6.78;45.97;94120.34;5009373;28;20084;-77
2023/03/20 01:12:45;;;;;;;6.22;4.82;;;;;;;6.81;46.14;94127.72;5011565;28;20037;-76
2023/03/20 01:15:23;;;;;;;9.93;4.65;;;;;;;6.62;46.10;94103.09;5013772;28;20071;-75
2023/03/20 01:17:48;;;;;;;7.05;4.55;;;;;;;6.56;46.35;94098.13;5012322;28;20037;-75
2023/03/20 01:20:21;;;;;;;9.00;4.13;;;;;;;6.68;46.12;94115.19;5011012;28;20096;-77
2023/03/20 01:22:46;;;;;;;10.32;5.10;;;;;;;6.61;46.12;94090.13;5012163;28;20052;-78
2023/03/20 01:25:12;;;;;;;10.15;5.45;;;;;;;6.67;46.16;94105.66;5013615;28;20496;-78
2023/03/20 01:27:38;;;;;;;8.20;5.32;;;;;;;6.68;46.27;94096.69;5011010;28;20128;-77
2023/03/20 01:30:15;;;;;;;10.18;6.22;;;;;;;6.56;46.03;94092.84;4996907;28;20025;-77
2023/03/20 01:32:42;;;;;;;8.77;5.65;;;;;;;6.59;46.34;94113.44;5013750;28;20037;-78
2023/03/20 01:35:11;;;;;;;7.40;5.45;;;;;;;6.58;46.38;94111.84;5013912;28;20123;-77
2023/03/20 01:37:37;;;;;;;8.82;4.53;;;;;;;6.56;46.22;94093.63;5010642;28;20153;-76
2023/03/20 01:40:11;;;;;;;10.20;5.32;;;;;;;6.50;46.55;94104.53;5011843;28;20045;-77
2023/03/20 01:42:37;;;;;;;6.00;4.55;;;;;;;6.47;46.58;94099.81;5012479;28;20529;-78
2023/03/20 01:45:15;;;;;;;7.55;4.10;;;;;;;6.51;46.77;94121.94;5008992;28;20135;-77
2023/03/20 01:47:40;;;;;;;9.02;5.32;;;;;;;6.38;47.07;94123.41;5009559;28;20589;-75
2023/03/20 01:50:33;;;;;;;10.50;6.53;;;;;;;6.38;47.07;94118.13;5011938;28;20205;-76
2023/03/20 01:53:14;;;;;;;8.45;6.10;;;;;;;6.32;47.00;94119.22;4991390;28;20109;-77
2023/03/20 01:55:42;;;;;;;9.77;6.40;;;;;;;6.17;47.07;94112.22;4997328;28;20381;-77
2023/03/20 01:58:18;;;;;;;10.98;6.65;;;;;;;6.26;47.31;94112.44;5013632;28;20112;-77
2023/03/20 02:00:47;;;;;;;11.93;5.95;;;;;;;6.29;46.96;94117.16;5010164;28;20122;-76
2023/03/20 02:03:12;;;;;;;7.95;5.03;;;;;;;6.24;47.03;94118.00;5013442;28;20488;-78
2023/03/20 02:05:38;;;;;;;9.75;5.75;;;;;;;6.17;47.02;94111.44;5011032;28;20037;-76
2023/03/20 02:08:30;;;;;;;10.55;6.57;;;;;;;6.19;47.34;94094.28;5013870;28;20851;-77
2023/03/20 02:10:59;;;;;;;10.07;6.53;;;;;;;5.88;47.50;94058.59;5011457;28;20114;-78
2023/03/20 02:13:30;;;;;;;13.35;7.88;;;;;;;6.09;47.58;94098.81;5009225;28;20099;-76
2023/03/20 02:15:57;;;;;;;9.27;7.20;;;;;;;6.12;47.73;94122.81;5012101;28;20051;-77
2023/03/20 02:18:23;;;;;;;7.63;6.75;;;;;;;5.99;47.68;94105.75;5010289;28;20028;-77
2023/03/20 02:21:30;;;;;;;11.95;8.00;;;;;;;6.05;47.57;94121.56;4987283;28;20029;-76
2023/03/20 02:24:28;;;;;;;11.80;8.02;;;;;;;5.98;47.70;94111.31;4993117;28;20057;-76
2023/03/20 02:27:12;;;;;;;11.13;8.20;;;;;;;5.97;47.86;94123.72;5009899;28;20141;-77
2023/03/20 02:30:05;;;;;;;14.43;9.52;;;;;;;5.88;48.09;94127.22;5006106;28;20979;-77
2023/03/20 02:32:56;;;;;;;10.50;8.73;;;;;;;5.83;48.03;94135.97;5010455;28;20045;-77
2023/03/20 02:35:49;;;;;;;12.02;8.32;;;;;;;5.81;47.96;94130.19;5009552;28;20633;-76
2023/03/20 02:38:36;;;;;;;16.63;9.75;;;;;;;5.87;48.01;94133.59;4999210;28;20036;-75
2023/03/20 02:41:27;;;;;;;13.05;9.25;;;;;;;5.82;48.31;94128.34;5008821;28;20040;-76
2023/03/20 02:44:07;;;;;;;11.70;8.40;;;;;;;5.79;48.28;94105.91;5010231;28;20041;-75
2023/03/20 02:46:32;;;;;;;12.68;7.28;;;;;;;5.90;47.93;94112.72;5008341;28;20046;-75
2023/03/20 02:49:03;;;;;;;9.25;6.95;;;;;;;5.94;48.02;94116.38;5010169;28;20122;-75
2023/03/20 02:51:55;;;;;;;14.60;8.68;;;;;;;5.94;48.02;94113.72;5007478;28;20339;-75
2023/03/20 02:54:32;;;;;;;13.07;9.38;;;;;;;5.84;47.72;94081.34;5010366;28;20318;-75
2023/03/20 02:57:03;;;;;;;17.17;10.18;;;;;;;5.98;47.70;94109.47;5010476;28;20021;-75
2023/03/20 02:59:40;;;;;;;15.15;10.30;;;;;;;5.99;47.90;94111.03;5011323;28;20044;-77
2023/03/20 03:02:25;;;;;;;16.27;10.02;;;;;;;5.84;47.95;94092.69;5009200;28;20119;-75
2023/03/20 03:04:54;;;;;;;;;;;;;;;5.90;47.98;94111.91;4997266;28;20042;-75
2023/03/20 03:07:23;;;;;;;13.73;8.60;;;;;;;5.68;48.23;94088.56;5012590;28;19917;-76
2023/03/20 03:09:54;;;;;;;10.38;7.03;;;;;;;5.77;48.19;94097.50;5008828;28;20597;-76
2023/03/20 03:12:28;;;;;;;11.20;6.97;;;;;;;5.89;48.24;94107.69;5010769;28;20048;-75
2023/03/20 03:14:59;;;;;;;14.70;6.20;;;;;;;5.79;48.45;94100.66;4996990;28;20710;-75
2023/03/20 03:17:29;;;;;;;9.95;6.93;;;;;;;5.70;48.38;94098.88;5011804;28;20033;-76
2023/03/20 03:20:00;;;;;;;7.22;5.68;;;;;;;5.78;48.50;94109.63;4989333;28;20037;-76
2023/03/20 03:22:26;;;;;;;7.05;5.43;;;;;;;5.74;48.44;94108.59;4996894;28;20123;-77
2023/03/20 03:24:53;;;;;;;10.07;5.97;;;;;;;5.58;48.55;94080.72;5011776;28;20041;-76
2023/03/20 03:27:21;;;;;;;6.45;4.70;;;;;;;5.76;48.31;94101.22;5010564;28;20057;-75
2023/03/20 03:30:02;;;;;;;12.90;6.20;;;;;;;5.71;48.36;94084.63;4993304;28;20025;-76
2023/03/20 03:32:35;;;;;;;12.02;6.35;;;;;;;5.74;48.49;94103.31;4992374;28;20034;-76
2023/03/20 03:35:04;;;;;;;10.52;7.15;;;;;;;5.58;48.37;94078.09;4997617;28;20124;-75
2023/03/20 03:37:41;;;;;;;8.88;6.63;;;;;;;5.79;48.41;94108.56;5007979;28;21282;-74
2023/03/20 03:40:23;;;;;;;12.10;7.32;;;;;;;5.63;48.27;94091.25;5009311;28;20133;-75
2023/03/20 03:42:57;;;;;;;8.88;5.95;;;;;;;5.76;48.14;94106.47;5007778;28;20041;-75
2023/03/20 03:45:35;;;;;;;7.35;5.13;;;;;;;5.62;48.56;94094.97;5010403;28;20018;-76
2023/03/20 03:48:07;;;;;;;8.20;5.82;;;;;;;5.51;48.46;94093.47;5007436;28;20017;-77
2023/03/20 03:50:47;;;;;;;9.07;5.38;;;;;;;5.40;48.89;94076.13;4990598;28;20458;-76
2023/03/20 03:53:19;;;;;;;8.07;5.20;;;;;;;5.45;48.67;94086.63;5006706;28;20034;-75
2023/03/20 03:55:49;;;;;;;6.82;4.22;;;;;;;5.54;48.96;94108.72;5006825;28;20224;-77
2023/03/20 03:58:21;;;;;;;5.72;4.20;;;;;;;5.57;48.67;94095.00;4993266;28;20056;-77
2023/03/20 04:00:50;;;;;;;5.85;3.97;;;;;;;5.63;48.73;94093.88;4989228;28;20490;-77
2023/03/20 04:03:19;;;;;;;10.40;5.15;;;;;;;5.45;48.67;94076.09;5004829;28;20045;-77
2023/03/20 04:05:45;;;;;;;8.98;4.97;;;;;;;5.55;48.55;94086.56;5006336;28;20385;-77
2023/03/20 04:08:10;;;;;;;6.80;5.60;;;;;;;5.48;48.61;94075.56;4998599;28;20038;-77
2023/03/20 04:10:36;;;;;;;9.30;6.28;;;;;;;5.67;48.37;94100.22;4988801;28;20048;-78
2023/03/20 04:13:02;;;;;;;9.15;5.15;;;;;;;5.65;48.18;94091.78;4988743;28;20034;-76
2023/03/20 04:15:27;;;;;;;9.07;5.43;;;;;;;5.61;48.30;94087.31;5005940;28;20048;-77
2023/03/20 04:17:53;;;;;;;10.73;6.53;;;;;;;5.59;48.48;94087.59;5000184;28;20287;-77
2023/03/20 04:20:18;;;;;;;8.77;5.15;;;;;;;5.51;48.30;94069.72;5007147;28;20072;-75
2023/03/20 04:22:44;;;;;;;8.15;5.80;;;;;;;5.53;48.46;94080.78;4997496;28;20468;-78
2023/03/20 04:25:20;;;;;;;9.23;4.47;;;;;;;5.52;48.58;94079.22;5009336;28;20332;-77
2023/03/20 04:27:46;;;;;;;6.10;4.50;;;;;;;5.45;48.41;94058.41;4989231;28;20030;-77
2023/03/20 04:30:12;;;;;;;7.38;4.88;;;;;;;5.37;48.58;94050.31;4996847;28;20036;-77
2023/03/20 04:32:37;;;;;;;6.82;4.60;;;;;;;5.44;48.27;94056.81;5009153;28;20420;-77
2023/03/20 04:35:06;;;;;;;8.55;4.93;;;;;;;5.48;48.27;94060.50;5008530;28;20034;-76
2023/03/20 04:37:31;;;;;;;7.30;5.07;;;;;;;5.39;48.20;94045.53;4997028;28;20092;-76
2023/03/20 04:39:57;;;;;;;9.55;6.30;;;;;;;5.40;48.60;94073.47;5010723;28;20026;-77
2023/03/20 04:42:22;;;;;;;7.10;5.95;;;;;;;5.51;48.87;94088.97;5006557;28;20053;-78
2023/03/20 04:44:47;;;;;;;10.15;5.65;;;;;;;5.70;48.33;94097.03;5011286;28;20022;-76
2023/03/20 04:47:13;;;;;;;9.85;7.18;;;;;;;5.71;48.28;94095.19;5015158;28;20034;-78
2023/03/20 04:49:38;;;;;;;10.88;7.60;;;;;;;5.68;48.63;94104.41;5013395;28;20516;-76
2023/03/20 04:52:04;;;;;;;11.25;8.35;;;;;;;5.68;48.59;94101.78;5013855;28;20449;-77
2023/03/20 04:54:29;;;;;;;13.82;9.05;;;;;;;5.47;49.12;94108.28;5013091;28;20032;-76
2023/03/20 04:56:55;;;;;;;11.68;7.90;;;;;;;5.51;49.17;94119.84;5009690;28;20045;-76
2023/03/20 04:59:20;;;;;;;15.20;8.52;;;;;;;5.61;49.47;94122.41;5015676;28;20119;-77
2023/03/20 05:01:46;;;;;;;15.18;8.05;;;;;;;5.55;49.51;94126.16;5016194;28;20025;-76
2023/03/20 05:04:11;;;;;;;11.43;7.82;;;;;;;5.52;49.68;94122.22;5015270;28;20936;-77
2023/03/20 05:06:37;;;;;;;11.18;6.97;;;;;;;5.57;49.51;94121.41;5010852;28;20041;-76
2023/03/20 05:09:02;;;;;;;13.02;7.55;;;;;;;5.66;49.84;94117.09;5014828;28;20118;-77
2023/03/20 05:11:28;;;;;;;11.50;8.23;;;;;;;5.73;49.86;94122.84;5011301;28;20037;-77
2023/03/20 05:13:54;;;;;;;13.07;8.85;;;;;;;5.74;49.50;94108.59;5013399;28;20045;-76
2023/03/20 05:16:20;;;;;;;15.10;9.23;;;;;;;5.72;49.49;94112.59;4999836;28;20040;-76
2023/03/20 05:18:45;;;;;;;12.75;8.68;;;;;;;5.64;49.87;94100.75;5012109;28;20038;-77
2023/03/20 05:21:11;;;;;;;16.27;10.23;;;;;;;5.83;49.71;94106.94;5011388;28;20047;-76
2023/03/20 05:23:36;;;;;;;14.82;9.90;;;;;;;5.94;49.75;94118.22;5011963;28;20433;-77
2023/03/20 05:26:02;;;;;;;23.13;11.15;;;;;;;5.96;49.55;94122.16;4993552;28;20187;-77
2023/03/20 05:28:28;;;;;;;15.35;10.38;;;;;;;6.05;49.38;94132.13;5014266;28;20127;-77
2023/03/20 05:30:53;;;;;;;15.70;10.00;;;;;;;6.16;49.71;94131.03;5011917;28;20581;-77
2023/03/20 05:33:19;;;;;;;14.68;10.55;;;;;;;6.14;49.57;94114.63;5010777;28;20017;-78
2023/03/20 05:35:45;;;;;;;16.52;11.15;;;;;;;6.28;49.83;94123.50;4994168;28;20575;-76
2023/03/20 05:38:10;;;;;;;17.67;10.90;;;;;;;6.31;50.32;94122.97;4993924;28;20034;-76
2023/03/20 05:40:36;;;;;;;19.38;12.45;;;;;;;6.39;49.46;94119.72;5011501;28;20529;-77
2023/03/20 05:43:01;;;;;;;20.23;13.30;;;;;;;6.43;49.50;94123.34;5010601;28;20510;-78
2023/03/20 05:45:27;;;;;;;24.10;13.15;;;;;;;6.20;49.98;94134.69;5012091;28;20070;-76
2023/03/20 05:47:52;;;;;;;19.63;11.85;;;;;;;6.47;49.83;94123.59;5012860;28;20032;-78
2023/03/20 05:50:18;;;;;;;19.63;12.57;;;;;;;6.62;49.42;94134.00;5010025;28;20109;-77
2023/03/20 05:52:48;;;;;;;21.48;14.15;;;;;;;6.80;48.00;94135.91;5011580;28;20358;-77
2023/03/20 05:55:14;;;;;;;39.25;15.02;;;;;;;6.09;49.74;94130.50;5010114;28;20068;-77
2023/03/20 05:57:40;;;;;;;43.72;16.40;;;;;;;6.11;50.28;94133.66;4997401;28;20040;-77
2023/03/20 06:00:07;;;;;;;37.67;15.55;;;;;;;6.55;49.95;94137.00;4999090;28;20029;-77
2023/03/20 06:02:32;;;;;;;32.55;15.68;;;;;;;6.32;49.44;94117.38;5009039;28;20030;-77
2023/03/20 06:04:58;;;;;;;46.78;16.35;;;;;;;6.70;49.47;94122.84;4991932;28;20033;-77
2023/03/20 06:07:23;;;;;;;45.92;17.60;;;;;;;6.91;48.82;94123.38;5008737;28;20033;-77
2023/03/20 06:09:49;;;;;;;42.78;18.45;;;;;;;7.05;48.79;94121.63;5010883;28;20041;-77
2023/03/20 06:12:15;;;;;;;34.60;16.88;;;;;;;7.16;48.38;94123.09;5011135;28;20092;-76
2023/03/20 06:14:40;;;;;;;37.63;16.88;;;;;;;7.17;47.95;94103.50;5012206;28;20418;-77
2023/03/20 06:17:06;;;;;;;35.70;16.27;;;;;;;7.28;47.68;94084.56;5009854;28;20030;-78
2023/03/20 06:19:31;;;;;;;39.63;20.05;;;;;;;7.02;48.49;94117.69;4995652;28;20460;-77
2023/03/20 06:21:57;;;;;;;47.05;21.90;;;;;;;6.50;50.21;94101.91;5008499;28;20048;-78
2023/03/20 06:24:22;;;;;;;29.25;19.23;;;;;;;6.85;49.92;94139.28;5012847;28;20626;-76
2023/03/20 06:26:48;;;;;;;28.73;17.83;;;;;;;6.97;49.63;94146.84;5009790;28;20381;-76
2023/03/20 06:29:13;;;;;;;33.22;17.83;;;;;;;6.79;49.71;94124.59;5011415;28;20087;-77
2023/03/20 06:31:39;;;;;;;29.63;17.02;;;;;;;7.21;48.79;94138.88;4990142;28;20042;-76
2023/03/20 06:34:04;;;;;;;28.30;18.42;;;;;;;6.78;49.87;94133.56;5010591;28;20045;-77
2023/03/20 06:36:30;;;;;;;31.27;19.40;;;;;;;6.56;50.33;94135.91;4994233;28;20456;-76
2023/03/20 06:38:56;;;;;;;30.05;19.88;;;;;;;6.42;50.53;94119.13;4997225;28;20428;-77
2023/03/20 06:41:22;;;;;;;36.33;20.13;;;;;;;6.47;51.20;94132.31;5010416;28;20029;-77
2023/03/20 06:43:47;;;;;;;32.67;20.17;;;;;;;7.09;50.00;94151.75;5008522;28;20045;-78
2023/03/20 06:46:13;;;;;;;32.03;19.30;;;;;;;7.36;48.18;94125.47;5012530;28;20037;-76
2023/03/20 06:48:38;;;;;;;29.33;18.70;;;;;;;7.49;48.72;94129.25;5002878;28;20580;-76
2023/03/20 06:51:04;;;;;;;36.45;20.70;;;;;;;7.56;48.02;94130.50;5009433;28;20022;-77
2023/03/20 06:53:29;;;;;;;42.08;22.10;;;;;;;7.15;49.28;94126.78;4987370;28;20432;-77
2023/03/20 06:55:55;;;;;;;27.63;18.98;;;;;;;7.57;48.79;94134.72;5010232;28;20040;-77
2023/03/20 06:58:20;;;;;;;31.38;20.52;;;;;;;7.06;49.21;94107.34;5009068;28;20029;-77
2023/03/20 07:00:45;;;;;;;32.05;19.13;;;;;;;7.27;48.98;94101.50;5008017;28;20466;-77
2023/03/20 07:03:11;;;;;;;30.42;19.92;;;;;;;7.69;48.26;94111.25;5009259;28;20044;-77
2023/03/20 07:05:37;;;;;;;29.90;21.02;;;;;;;7.88;47.94;94116.53;5003755;28;20053;-78
2023/03/20 07:08:03;;;;;;;34.13;19.10;;;;;;;7.94;47.44;94098.72;5010031;28;20705;-77
2023/03/20 07:10:29;;;;;;;33.70;19.23;;;;;;;8.01;47.79;94122.97;5004915;28;20038;-76
2023/03/20 07:12:55;;;;;;;26.20;17.85;;;;;;;8.02;47.04;94121.91;4994484;28;20037;-76
2023/03/20 07:15:21;;;;;;;25.52;17.25;;;;;;;7.71;48.13;94118.91;5008512;28;20068;-76
2023/03/20 07:17:46;;;;;;;30.75;19.65;;;;;;;8.04;47.40;94127.69;5006996;28;20522;-77
2023/03/20 07:20:12;;;;;;;28.13;18.20;;;;;;;7.95;47.64;94100.28;5006582;28;20037;-76
2023/03/20 07:22:40;;;;;;;28.45;16.60;;;;;;;8.22;47.11;94104.91;4993404;28;20496;-77
2023/03/20 07:25:07;;;;;;;25.38;17.55;;;;;;;7.95;48.28;94097.66;5006958;28;20042;-77
2023/03/20 07:27:32;;;;;;;27.10;14.93;;;;;;;7.73;48.25;94122.84;5008704;28;20033;-77
2023/03/20 07:29:58;;;;;;;23.55;14.48;;;;;;;7.57;49.65;94124.13;5006580;28;20026;-77
2023/03/20 07:32:23;;;;;;;17.33;12.60;;;;;;;8.21;48.06;94114.72;5007977;28;20080;-77
2023/03/20 07:34:49;;;;;;;21.40;13.85;;;;;;;8.17;47.65;94113.69;5007676;28;20038;-77
2023/03/20 07:37:14;;;;;;;19.58;13.52;;;;;;;8.06;48.49;94121.03;5008565;28;20040;-77
2023/03/20 07:39:40;;;;;;;13.13;10.02;;;;;;;8.59;46.36;94108.22;5005498;28;20826;-77
2023/03/20 07:42:05;;;;;;;14.63;9.20;;;;;;;8.82;45.24;94101.16;5007262;28;20587;-77
2023/03/20 07:44:31;;;;;;;18.83;13.45;;;;;;;9.15;45.17;94109.81;5007629;28;20513;-76
2023/03/20 07:46:56;;;;;;;19.77;12.63;;;;;;;8.83;45.72;94113.34;5007627;28;20132;-77
2023/03/20 07:49:22;;;;;;;20.45;13.38;;;;;;;8.47;46.49;94121.13;5004850;28;20591;-77
2023/03/20 07:51:48;;;;;;;15.13;11.05;;;;;;;8.81;45.43;94114.69;5004725;28;20544;-77
2023/03/20 07:54:14;;;;;;;21.17;11.88;;;;;;;8.99;45.17;94127.09;5008137;28;20052;-76
2023/03/20 07:56:40;;;;;;;16.60;11.20;;;;;;;9.38;44.22;94122.09;4991131;28;20723;-78
2023/03/20 07:59:05;;;;;;;19.17;12.25;;;;;;;9.53;43.79;94120.97;4994927;28;20041;-77
2023/03/20 08:01:31;;;;;;;16.95;11.15;;;;;;;9.69;44.07;94124.06;4996386;28;20077;-76
2023/03/20 08:03:56;;;;;;;19.92;11.38;;;;;;;9.58;43.99;94110.25;4991752;28;20070;-76
2023/03/20 08:06:22;;;;;;;21.70;11.65;;;;;;;9.88;43.62;94117.50;5007972;28;20075;-77
2023/03/20 08:08:50;;;;;;;17.20;11.43;;;;;;;9.47;43.59;94094.81;5004809;28;20522;-79
2023/03/20 08:11:16;;;;;;;16.15;10.63;;;;;;;9.85;42.42;94122.66;5001151;28;20734;-78
2023/03/20 08:13:41;;;;;;;16.75;10.48;;;;;;;9.47;43.68;94121.38;5006552;28;20042;-77
2023/03/20 08:16:07;;;;;;;38.65;11.05;;;;;;;8.80;44.92;94108.63;4992161;28;20037;-77
2023/03/20 08:18:33;;;;;;;15.13;9.70;;;;;;;9.25;43.05;94114.13;4992047;28;20031;-77
2023/03/20 08:20:58;;;;;;;20.67;10.18;;;;;;;9.07;42.80;94102.50;5005901;28;20463;-75
2023/03/20 08:23:23;;;;;;;20.42;10.68;;;;;;;9.55;43.12;94091.44;5008669;28;20040;-77
2023/03/20 08:25:51;;;;;;;20.30;10.38;;;;;;;9.81;42.74;94109.19;4990440;28;20045;-78
2023/03/20 08:28:17;;;;;;;18.55;11.88;;;;;;;9.82;43.04;94117.94;5008364;28;20038;-76
2023/03/20 08:30:42;;;;;;;31.17;13.20;;;;;;;9.39;44.01;94120.97;5008961;28;20041;-76
2023/03/20 08:33:08;;;;;;;25.60;13.32;;;;;;;9.01;44.50;94132.88;5007431;28;20029;-79
2023/03/20 08:35:34;;;;;;;18.60;11.60;;;;;;;9.54;43.94;94127.84;5006735;28;20034;-77
2023/03/20 08:38:00;;;;;;;25.50;14.00;;;;;;;9.79;43.50;94129.94;4997314;28;20034;-77
2023/03/20 08:40:26;;;;;;;24.73;14.25;;;;;;;9.60;43.93;94121.34;5003239;28;20044;-77
2023/03/20 08:42:51;;;;;;;21.77;13.95;;;;;;;9.49;43.85;94135.16;4991579;28;20042;-77
2023/03/20 08:45:17;;;;;;;27.80;15.30;;;;;;;9.29;43.99;94105.25;5009010;28;20030;-77
2023/03/20 08:47:42;;;;;;;23.50;16.58;;;;;;;9.47;44.37;94116.06;5009718;28;20565;-77
2023/03/20 08:50:08;;;;;;;29.05;16.77;;;;;;;10.03;43.60;94121.69;5002944;28;20128;-78
2023/03/20 08:52:35;;;;;;;28.17;16.77;;;;;;;10.14;44.96;94119.56;4996303;28;20120;-77
2023/03/20 08:55:00;;;;;;;29.48;18.17;;;;;;;10.22;43.10;94084.31;5005919;28;20037;-77
2023/03/20 08:57:26;;;;;;;34.78;18.75;;;;;;;10.14;44.04;94119.56;5009797;28;20037;-77
2023/03/20 08:59:51;;;;;;;33.15;20.27;;;;;;;10.13;43.76;94123.31;5007807;28;20538;-78
2023/03/20 09:02:17;;;;;;;31.08;18.48;;;;;;;9.91;43.95;94118.00;5009112;28;20081;-77
2023/03/20 09:04:42;;;;;;;46.10;22.08;;;;;;;9.87;43.89;94115.16;5006882;28;20037;-77
2023/03/20 09:07:07;;;;;;;34.90;19.90;;;;;;;9.68;43.76;94091.41;5008007;28;20037;-77
2023/03/20 09:09:33;;;;;;;29.25;17.27;;;;;;;10.56;42.33;94107.69;5005924;28;20634;-77
2023/03/20 09:11:59;;;;;;;34.33;18.20;;;;;;;10.69;41.66;94082.84;4992569;28;20039;-77
2023/03/20 09:14:26;;;;;;;31.70;17.98;;;;;;;10.98;40.71;94107.06;5006336;28;20108;-77
2023/03/20 09:16:52;;;;;;;34.28;17.85;;;;;;;10.93;41.20;94101.88;4987864;28;20053;-78
2023/03/20 09:19:19;;;;;;;31.60;18.65;;;;;;;10.87;42.05;94092.47;5007741;28;20041;-78
2023/03/20 09:21:45;;;;;;;34.92;20.33;;;;;;;9.99;42.48;94072.91;5005880;28;20306;-78
2023/03/20 09:24:11;;;;;;;34.42;21.58;;;;;;;10.71;41.97;94096.63;5009497;28;20092;-77
2023/03/20 09:26:37;;;;;;;33.08;18.92;;;;;;;10.96;41.72;94072.00;5006245;28;20168;-77
2023/03/20 09:29:04;;;;;;;45.13;20.95;;;;;;;10.53;42.99;94094.97;5008211;28;20061;-77
2023/03/20 09:31:29;;;;;;;28.98;19.85;;;;;;;10.62;42.61;94071.88;5007720;28;20502;-77
2023/03/20 09:33:54;;;;;;;28.08;19.38;;;;;;;10.84;41.68;94069.16;4997508;28;20042;-77
2023/03/20 09:36:20;;;;;;;36.63;19.20;;;;;;;11.25;41.19;94079.41;4995610;28;20520;-77
2023/03/20 09:38:46;;;;;;;31.08;19.55;;;;;;;11.41;40.57;94071.78;4993998;28;20488;-77
2023/03/20 09:41:19;;;;;;;32.03;19.45;;;;;;;11.40;40.95;94064.88;5011158;28;20041;-77
2023/03/20 09:43:56;;;;;;;29.30;19.73;;;;;;;11.46;40.88;94071.63;4994197;28;20101;-78
2023/03/20 09:46:40;;;;;;;32.97;20.60;;;;;;;11.26;41.38;94072.22;5009023;28;20153;-78
2023/03/20 09:49:26;;;;;;;25.95;18.20;;;;;;;11.56;40.88;94064.16;5012800;28;20134;-75
2023/03/20 09:51:57;;;;;;;29.88;19.35;;;;;;;11.99;41.10;94061.47;5006782;28;20531;-78
2023/03/20 09:54:46;;;;;;;24.80;17.75;;;;;;;12.23;40.27;94044.19;4993605;28;20044;-77
2023/03/20 09:57:19;;;;;;;39.00;18.80;;;;;;;11.52;39.64;94038.47;4998890;28;20065;-78
2023/03/20 09:59:46;;;;;;;31.92;17.83;;;;;;;11.68;39.87;94010.25;5006535;28;20037;-78
2023/03/20 10:02:23;;;;;;;30.70;17.67;;;;;;;11.66;40.22;94009.78;5010153;28;20041;-77
2023/03/20 10:04:53;;;;;;;33.25;17.77;;;;;;;11.95;39.29;94004.56;5013086;28;20076;-77
2023/03/20 10:07:19;;;;;;;27.08;17.30;;;;;;;11.70;39.67;94018.72;5009808;28;20087;-79
2023/03/20 10:09:44;;;;;;;28.73;17.70;;;;;;;11.89;39.62;93992.50;5013051;28;20116;-78
2023/03/20 10:12:35;;;;;;;31.70;18.52;;;;;;;12.35;38.96;94012.31;4990092;28;20116;-78
2023/03/20 10:15:19;;;;;;;22.98;17.85;;;;;;;12.22;38.80;94011.44;5007197;28;20041;-78
2023/03/20 10:18:00;;;;;;;51.97;31.85;;;;;;;12.26;39.50;94006.22;5012175;28;20120;-78
2023/03/20 10:20:54;;;;;;;27.02;18.35;;;;;;;12.01;39.83;94011.31;5009266;28;20069;-77
2023/03/20 10:23:38;;;;;;;33.23;17.97;;;;;;;12.09;40.25;94000.94;5003182;28;20104;-78
2023/03/20 10:26:08;;;;;;;26.52;16.58;;;;;;;12.66;37.86;94014.75;5008463;28;20561;-78
2023/03/20 10:28:56;;;;;;;33.63;16.77;;;;;;;12.25;39.09;94010.00;5007782;28;20049;-77
2023/03/20 10:31:49;;;;;;;31.95;16.83;;;;;;;12.12;38.95;93978.97;4996601;28;20034;-77
2023/03/20 10:34:38;;;;;;;185.43;90.97;;;;;;;12.47;39.29;93996.41;4997417;28;20502;-78
2023/03/20 10:37:16;;;;;;;38.03;20.00;;;;;;;12.50;38.64;93995.00;5004484;28;20073;-78
2023/03/20 10:40:03;;;;;;;30.70;19.02;;;;;;;12.93;39.32;93984.94;5011800;28;20458;-78
2023/03/20 10:42:34;;;;;;;38.85;20.13;;;;;;;12.87;38.20;93988.88;5008884;28;20034;-76
2023/03/20 10:45:08;;;;;;;33.47;17.98;;;;;;;12.88;38.32;93980.56;4997240;28;20127;-77
2023/03/20 10:47:37;;;;;;;28.45;17.27;;;;;;;12.57;38.28;93964.03;5009595;28;20045;-78
2023/03/20 10:50:25;;;;;;;27.85;16.08;;;;;;;12.97;37.75;93982.38;5010139;28;20054;-78
2023/03/20 10:52:54;;;;;;;33.58;17.10;;;;;;;12.81;37.95;93948.25;4998683;28;20365;-78
2023/03/20 10:55:26;;;;;;;30.63;17.90;;;;;;;13.33;37.13;93947.91;4996657;28;20041;-77
2023/03/20 10:57:56;;;;;;;28.60;17.20;;;;;;;13.53;36.97;93954.34;4989670;28;20041;-79
2023/03/20 11:00:24;;;;;;;28.98;16.85;;;;;;;13.07;36.92;93957.97;5000493;28;20524;-79
2023/03/20 11:02:50;;;;;;;29.13;17.75;;;;;;;13.45;36.18;93947.16;5000997;28;20025;-77
2023/03/20 11:05:35;;;;;;;30.00;17.63;;;;;;;13.75;36.40;93954.78;4982525;28;20484;-77
2023/03/20 11:08:05;;;;;;;27.40;16.60;;;;;;;13.88;36.43;93936.13;4995574;28;20069;-78
2023/03/20 11:10:32;;;;;;;24.02;16.35;;;;;;;14.00;36.79;93918.22;4996895;28;20046;-78
2023/03/20 11:13:13;;;;;;;29.92;17.73;;;;;;;14.32;35.08;93921.94;4978092;28;20041;-77
2023/03/20 11:15:38;;;;;;;24.13;16.77;;;;;;;14.33;35.81;93926.16;4988101;28;20041;-77
2023/03/20 11:18:06;;;;;;;24.75;16.38;;;;;;;14.35;35.69;93931.19;5001051;28;20021;-77
2023/03/20 11:20:56;;;;;;;27.88;15.40;;;;;;;14.32;34.79;93934.53;4999081;28;20067;-77
2023/03/20 11:23:27;;;;;;;30.98;16.60;;;;;;;14.53;34.21;93914.59;4983233;28;20759;-78
2023/03/20 11:26:00;;;;;;;31.02;17.00;;;;;;;14.65;34.38;93931.78;5001944;28;20103;-77
2023/03/20 11:28:30;;;;;;;26.67;15.43;;;;;;;14.89;33.43;93926.41;4990350;28;20034;-78
2023/03/20 11:31:12;;;;;;;26.58;15.73;;;;;;;14.63;34.05;93909.91;5002066;28;21063;-79
2023/03/20 11:33:42;;;;;;;30.48;15.25;;;;;;;14.99;36.66;93910.66;5001937;28;21082;-78
2023/03/20 11:36:33;;;;;;;22.60;15.70;;;;;;;14.99;33.24;93907.22;5001255;28;20156;-78
2023/03/20 11:39:04;;;;;;;22.25;14.73;;;;;;;14.81;33.24;93911.25;4973819;28;20502;-78
2023/03/20 11:41:30;;;;;;;25.10;16.70;;;;;;;14.77;33.59;93897.75;5001892;28;20042;-79